Hassyoumaru — JL6679 — position and weather

sailwx.info

Track history (hours):
 
Tides and Currents Weather Stations Pressure Air Temp Water Temp Dewpoint Dewpoint Depression Visibility Wind Speed Wind Dir Waves Ship Positions

Hassyoumaru

Last reported at 2018-Feb-19 03:12 UTC. Time now 2018-Feb-20 05:08 UTC.
Position N 34°11' E 132°35'.

Length 58 m.

Type: Cargo ship. MMSI: 431501763.

Date/timePositionNaut miles runAvg speedWind from/ knotsBaromVisibWave heightAir tempDewpointWater temp
2018-Feb-19 03:12N 34°11' E 132°35'211.6
2018-Feb-19 03:00N 34°11' E 132°33'511.1
2018-Feb-19 02:30N 34°16' E 132°30'5 9.3
2018-Feb-19 01:59N 34°21' E 132°28'0 0.0
2018-Feb-19 01:26N 34°21' E 132°28'0 0.0
2018-Feb-19 00:20N 34°21' E 132°28'0 0.0
2018-Feb-18 23:53N 34°21' E 132°28'0 0.0
2018-Feb-18 23:26N 34°21' E 132°28'0 0.0
2018-Feb-18 22:53N 34°21' E 132°28'0 0.0
2018-Feb-18 22:29N 34°21' E 132°28'0 0.0
2018-Feb-18 21:56N 34°21' E 132°28'0 0.0
2018-Feb-18 21:23N 34°21' E 132°28'0 0.1
2018-Feb-18 20:56N 34°21' E 132°28'0 0.1
2018-Feb-18 20:29N 34°21' E 132°28'0 0.0
2018-Feb-18 19:59N 34°21' E 132°28'0 0.0
2018-Feb-18 19:29N 34°21' E 132°28'0 0.0
2018-Feb-18 18:59N 34°21' E 132°28'0 0.0
2018-Feb-18 18:29N 34°21' E 132°28'0 0.1
2018-Feb-18 17:59N 34°21' E 132°28'0 0.1
2018-Feb-18 17:29N 34°21' E 132°28'0 0.0
2018-Feb-18 16:59N 34°21' E 132°28'0 0.0
2018-Feb-18 16:29N 34°21' E 132°28'0 0.0
2018-Feb-18 15:41N 34°21' E 132°28'0 0.0
2018-Feb-18 15:29N 34°21' E 132°28'0 0.0
2018-Feb-18 14:59N 34°21' E 132°28'0 0.0
2018-Feb-18 14:29N 34°21' E 132°28'0 0.1
2018-Feb-18 13:59N 34°21' E 132°28'0 0.1
2018-Feb-18 13:26N 34°21' E 132°28'0 0.1
2018-Feb-18 12:59N 34°21' E 132°28'0 0.1
2018-Feb-18 12:14N 34°21' E 132°28'0 0.0
2018-Feb-18 11:59N 34°21' E 132°28'0 0.0
2018-Feb-18 11:29N 34°21' E 132°28'0 0.0
2018-Feb-18 10:56N 34°21' E 132°28'0 0.1
2018-Feb-18 10:23N 34°21' E 132°28'4 9.8
2018-Feb-18 10:00N 34°18' E 132°30'611.2
2018-Feb-18 09:30N 34°12' E 132°32'100 3.9
2018-Feb-17 08:01N 34°28' E 134°32'111.3
2018-Feb-17 07:58N 34°29' E 134°32'610.7
2018-Feb-17 07:27N 34°30' E 134°39'510.4
2018-Feb-17 07:00N 34°32' E 134°44'6 9.9
2018-Feb-17 06:25N 34°34' E 134°50'4 8.5
2018-Feb-17 05:59N 34°36' E 134°54'4 8.8
2018-Feb-17 05:30N 34°37' E 134°59'4 7.3
2018-Feb-17 05:00N 34°36' E 135°03'5 9.3
2018-Feb-17 04:30N 34°36' E 135°09'510.3
2018-Feb-17 04:00N 34°36' E 135°15'510.2
2018-Feb-17 03:30N 34°36' E 135°21'5 9.5
2018-Feb-17 03:00N 34°35' E 135°27'0 0.4
2018-Feb-17 02:28N 34°35' E 135°27'0 0.0
2018-Feb-17 01:58N 34°35' E 135°27'0 0.0
2018-Feb-17 01:28N 34°35' E 135°27'0 0.0
2018-Feb-17 00:58N 34°35' E 135°27'0 0.0
2018-Feb-17 00:28N 34°35' E 135°27'0 0.0
2018-Feb-16 23:58N 34°35' E 135°27'0 0.0
2018-Feb-16 23:28N 34°35' E 135°27'0 0.0
2018-Feb-16 22:58N 34°35' E 135°27'0 0.0
2018-Feb-16 22:28N 34°35' E 135°27'0 0.0
2018-Feb-16 21:58N 34°35' E 135°27'0 0.0
2018-Feb-16 21:28N 34°35' E 135°27'0 0.0
2018-Feb-16 20:58N 34°35' E 135°27'0 0.0
2018-Feb-16 20:28N 34°35' E 135°27'0 0.0
2018-Feb-16 19:58N 34°35' E 135°27'0 0.0
2018-Feb-16 19:28N 34°35' E 135°27'0 0.0
2018-Feb-16 18:58N 34°35' E 135°27'0 0.0
2018-Feb-16 18:28N 34°35' E 135°27'0 0.0
2018-Feb-16 17:58N 34°35' E 135°27'0 0.0
2018-Feb-16 17:28N 34°35' E 135°27'0 0.0
2018-Feb-16 16:58N 34°35' E 135°27'0 0.0
2018-Feb-16 16:25N 34°35' E 135°27'0 0.0
2018-Feb-16 15:58N 34°35' E 135°27'1 3.1
2018-Feb-16 15:30N 34°35' E 135°26'510.4
2018-Feb-16 15:00N 34°36' E 135°19'510.9
2018-Feb-16 14:30N 34°35' E 135°13'511.0
2018-Feb-16 14:00N 34°35' E 135°06'510.4
2018-Feb-16 13:30N 34°37' E 135°00'510.6
2018-Feb-16 13:00N 34°35' E 134°54'5 9.3
2018-Feb-16 12:30N 34°33' E 134°49'5 9.9
2018-Feb-16 11:58N 34°31' E 134°43'510.7
2018-Feb-16 11:30N 34°29' E 134°38'1 0.0
2018-Feb-15 10:50N 34°30' E 134°37'612.1
2018-Feb-15 10:22N 34°32' E 134°44'412.4
2018-Feb-15 10:00N 34°34' E 134°49'612.5
2018-Feb-15 09:29N 34°37' E 134°56'510.8
2018-Feb-15 09:00N 34°37' E 135°02'611.2
2018-Feb-15 08:30N 34°36' E 135°09'611.5
2018-Feb-15 08:00N 34°38' E 135°16'611.3
2018-Feb-15 07:30N 34°38' E 135°23'4 8.2
2018-Feb-15 07:00N 34°40' E 135°27'0 0.0
2018-Feb-15 06:24N 34°40' E 135°27'0 0.0
2018-Feb-15 06:00N 34°40' E 135°27'0 0.0
2018-Feb-15 05:30N 34°40' E 135°27'0 0.0
2018-Feb-15 05:00N 34°40' E 135°27'0 0.0
2018-Feb-15 04:30N 34°40' E 135°27'0 0.0
2018-Feb-15 04:00N 34°40' E 135°27'0 0.0
2018-Feb-15 03:30N 34°40' E 135°27'0 0.0
2018-Feb-15 03:00N 34°40' E 135°27'0 0.0
2018-Feb-15 02:30N 34°40' E 135°27'0 0.0
2018-Feb-15 02:00N 34°40' E 135°27'0 0.0
2018-Feb-15 01:30N 34°40' E 135°27'0 0.0
2018-Feb-15 01:00N 34°40' E 135°27'0 0.0
2018-Feb-15 00:30N 34°40' E 135°27'0 0.0
2018-Feb-15 00:00N 34°40' E 135°27'0 0.0
2018-Feb-14 23:30N 34°40' E 135°27'0 0.0
2018-Feb-14 23:00N 34°40' E 135°27'0 0.0
2018-Feb-14 22:30N 34°40' E 135°27'0 0.0
2018-Feb-14 22:00N 34°40' E 135°27'0 0.0
2018-Feb-14 21:30N 34°40' E 135°27'0 0.0
2018-Feb-14 21:00N 34°40' E 135°27'0 0.0
2018-Feb-14 20:30N 34°40' E 135°27'0 0.0
2018-Feb-14 20:00N 34°40' E 135°27'0 0.0
2018-Feb-14 19:30N 34°40' E 135°27'0 0.0
2018-Feb-14 19:00N 34°40' E 135°27'0 0.0
2018-Feb-14 18:30N 34°40' E 135°27'0 0.0
2018-Feb-14 18:00N 34°40' E 135°27'0 0.0
2018-Feb-14 17:30N 34°40' E 135°27'0 0.0
2018-Feb-14 17:00N 34°40' E 135°27'2 3.1
2018-Feb-14 16:29N 34°39' E 135°26'510.2
2018-Feb-14 16:00N 34°38' E 135°20'610.9
2018-Feb-14 15:30N 34°36' E 135°13'611.3
2018-Feb-14 15:00N 34°35' E 135°07'712.2
2018-Feb-14 14:28N 34°37' E 134°59'612.2
2018-Feb-14 14:00N 34°35' E 134°53'611.3
2018-Feb-14 13:30N 34°32' E 134°47'611.0
2018-Feb-14 13:00N 34°30' E 134°41'611.1
2018-Feb-14 12:29N 34°28' E 134°34'99 2.9
2018-Feb-13 02:36N 34°11' E 132°36'211.8
2018-Feb-13 02:24N 34°11' E 132°34'4 9.4
2018-Feb-13 02:00N 34°14' E 132°31'611.7
2018-Feb-13 01:30N 34°20' E 132°28'1 2.1
2018-Feb-13 00:57N 34°21' E 132°28'0 0.1
2018-Feb-13 00:13N 34°21' E 132°28'0 0.0
2018-Feb-12 23:58N 34°21' E 132°28'0 0.0
2018-Feb-12 23:27N 34°21' E 132°28'0 0.0
2018-Feb-12 12:40N 34°21' E 132°28'0 0.0
2018-Feb-12 09:20N 34°21' E 132°28'0 0.0
2018-Feb-12 08:59N 34°21' E 132°28'0 0.0
2018-Feb-12 02:08N 34°21' E 132°28'0 0.0
2018-Feb-12 01:59N 34°21' E 132°28'0 0.0
2018-Feb-11 21:11N 34°21' E 132°28'0 0.0
2018-Feb-11 20:59N 34°21' E 132°28'0 0.0
2018-Feb-11 11:32N 34°21' E 132°28'0 0.1
2018-Feb-11 11:29N 34°21' E 132°28'0 0.0
2018-Feb-11 10:59N 34°21' E 132°28'0 0.1
2018-Feb-11 10:29N 34°21' E 132°28'0 0.0
2018-Feb-11 09:44N 34°21' E 132°28'0 0.2
2018-Feb-11 09:29N 34°21' E 132°28'0 0.1
2018-Feb-11 08:59N 34°21' E 132°28'0 0.0
2018-Feb-11 00:41N 34°21' E 132°28'0 0.2
2018-Feb-11 00:29N 34°21' E 132°28'0 0.0
2018-Feb-10 20:29N 34°21' E 132°28'0 0.0
2018-Feb-10 07:29N 34°21' E 132°28'0 0.0
2018-Feb-09 22:20N 34°21' E 132°28'  
Track history (hours):
 
Tides and Currents Weather Stations Pressure Air Temp Water Temp Dewpoint Dewpoint Depression Visibility Wind Speed Wind Dir Waves Ship Positions

Hassyoumaru

Last reported at 2018-Feb-19 03:12 UTC. Time now 2018-Feb-20 05:08 UTC.
Position N 34°11' E 132°35'.

Length 58 m.

Type: Cargo ship. MMSI: 431501763.

Date/timePositionNaut miles runAvg speedWind from/ knotsBaromVisibWave heightAir tempDewpointWater temp
2018-Feb-19 03:12N 34°11' E 132°35'211.6
2018-Feb-19 03:00N 34°11' E 132°33'511.1
2018-Feb-19 02:30N 34°16' E 132°30'5 9.3
2018-Feb-19 01:59N 34°21' E 132°28'0 0.0
2018-Feb-19 01:26N 34°21' E 132°28'0 0.0
2018-Feb-19 00:20N 34°21' E 132°28'0 0.0
2018-Feb-18 23:53N 34°21' E 132°28'0 0.0
2018-Feb-18 23:26N 34°21' E 132°28'0 0.0
2018-Feb-18 22:53N 34°21' E 132°28'0 0.0
2018-Feb-18 22:29N 34°21' E 132°28'0 0.0
2018-Feb-18 21:56N 34°21' E 132°28'0 0.0
2018-Feb-18 21:23N 34°21' E 132°28'0 0.1
2018-Feb-18 20:56N 34°21' E 132°28'0 0.1
2018-Feb-18 20:29N 34°21' E 132°28'0 0.0
2018-Feb-18 19:59N 34°21' E 132°28'0 0.0
2018-Feb-18 19:29N 34°21' E 132°28'0 0.0
2018-Feb-18 18:59N 34°21' E 132°28'0 0.0
2018-Feb-18 18:29N 34°21' E 132°28'0 0.1
2018-Feb-18 17:59N 34°21' E 132°28'0 0.1
2018-Feb-18 17:29N 34°21' E 132°28'0 0.0
2018-Feb-18 16:59N 34°21' E 132°28'0 0.0
2018-Feb-18 16:29N 34°21' E 132°28'0 0.0
2018-Feb-18 15:41N 34°21' E 132°28'0 0.0
2018-Feb-18 15:29N 34°21' E 132°28'0 0.0
2018-Feb-18 14:59N 34°21' E 132°28'0 0.0
2018-Feb-18 14:29N 34°21' E 132°28'0 0.1
2018-Feb-18 13:59N 34°21' E 132°28'0 0.1
2018-Feb-18 13:26N 34°21' E 132°28'0 0.1
2018-Feb-18 12:59N 34°21' E 132°28'0 0.1
2018-Feb-18 12:14N 34°21' E 132°28'0 0.0
2018-Feb-18 11:59N 34°21' E 132°28'0 0.0
2018-Feb-18 11:29N 34°21' E 132°28'0 0.0
2018-Feb-18 10:56N 34°21' E 132°28'0 0.1
2018-Feb-18 10:23N 34°21' E 132°28'4 9.8
2018-Feb-18 10:00N 34°18' E 132°30'611.2
2018-Feb-18 09:30N 34°12' E 132°32'100 3.9
2018-Feb-17 08:01N 34°28' E 134°32'111.3
2018-Feb-17 07:58N 34°29' E 134°32'610.7
2018-Feb-17 07:27N 34°30' E 134°39'510.4
2018-Feb-17 07:00N 34°32' E 134°44'6 9.9
2018-Feb-17 06:25N 34°34' E 134°50'4 8.5
2018-Feb-17 05:59N 34°36' E 134°54'4 8.8
2018-Feb-17 05:30N 34°37' E 134°59'4 7.3
2018-Feb-17 05:00N 34°36' E 135°03'5 9.3
2018-Feb-17 04:30N 34°36' E 135°09'510.3
2018-Feb-17 04:00N 34°36' E 135°15'510.2
2018-Feb-17 03:30N 34°36' E 135°21'5 9.5
2018-Feb-17 03:00N 34°35' E 135°27'0 0.4
2018-Feb-17 02:28N 34°35' E 135°27'0 0.0
2018-Feb-17 01:58N 34°35' E 135°27'0 0.0
2018-Feb-17 01:28N 34°35' E 135°27'0 0.0
2018-Feb-17 00:58N 34°35' E 135°27'0 0.0
2018-Feb-17 00:28N 34°35' E 135°27'0 0.0
2018-Feb-16 23:58N 34°35' E 135°27'0 0.0
2018-Feb-16 23:28N 34°35' E 135°27'0 0.0
2018-Feb-16 22:58N 34°35' E 135°27'0 0.0
2018-Feb-16 22:28N 34°35' E 135°27'0 0.0
2018-Feb-16 21:58N 34°35' E 135°27'0 0.0
2018-Feb-16 21:28N 34°35' E 135°27'0 0.0
2018-Feb-16 20:58N 34°35' E 135°27'0 0.0
2018-Feb-16 20:28N 34°35' E 135°27'0 0.0
2018-Feb-16 19:58N 34°35' E 135°27'0 0.0
2018-Feb-16 19:28N 34°35' E 135°27'0 0.0
2018-Feb-16 18:58N 34°35' E 135°27'0 0.0
2018-Feb-16 18:28N 34°35' E 135°27'0 0.0
2018-Feb-16 17:58N 34°35' E 135°27'0 0.0
2018-Feb-16 17:28N 34°35' E 135°27'0 0.0
2018-Feb-16 16:58N 34°35' E 135°27'0 0.0
2018-Feb-16 16:25N 34°35' E 135°27'0 0.0
2018-Feb-16 15:58N 34°35' E 135°27'1 3.1
2018-Feb-16 15:30N 34°35' E 135°26'510.4
2018-Feb-16 15:00N 34°36' E 135°19'510.9
2018-Feb-16 14:30N 34°35' E 135°13'511.0
2018-Feb-16 14:00N 34°35' E 135°06'510.4
2018-Feb-16 13:30N 34°37' E 135°00'510.6
2018-Feb-16 13:00N 34°35' E 134°54'5 9.3
2018-Feb-16 12:30N 34°33' E 134°49'5 9.9
2018-Feb-16 11:58N 34°31' E 134°43'510.7
2018-Feb-16 11:30N 34°29' E 134°38'1 0.0
2018-Feb-15 10:50N 34°30' E 134°37'612.1
2018-Feb-15 10:22N 34°32' E 134°44'412.4
2018-Feb-15 10:00N 34°34' E 134°49'612.5
2018-Feb-15 09:29N 34°37' E 134°56'510.8
2018-Feb-15 09:00N 34°37' E 135°02'611.2
2018-Feb-15 08:30N 34°36' E 135°09'611.5
2018-Feb-15 08:00N 34°38' E 135°16'611.3
2018-Feb-15 07:30N 34°38' E 135°23'4 8.2
2018-Feb-15 07:00N 34°40' E 135°27'0 0.0
2018-Feb-15 06:24N 34°40' E 135°27'0 0.0
2018-Feb-15 06:00N 34°40' E 135°27'0 0.0
2018-Feb-15 05:30N 34°40' E 135°27'0 0.0
2018-Feb-15 05:00N 34°40' E 135°27'0 0.0
2018-Feb-15 04:30N 34°40' E 135°27'0 0.0
2018-Feb-15 04:00N 34°40' E 135°27'0 0.0
2018-Feb-15 03:30N 34°40' E 135°27'0 0.0
2018-Feb-15 03:00N 34°40' E 135°27'0 0.0
2018-Feb-15 02:30N 34°40' E 135°27'0 0.0
2018-Feb-15 02:00N 34°40' E 135°27'0 0.0
2018-Feb-15 01:30N 34°40' E 135°27'0 0.0
2018-Feb-15 01:00N 34°40' E 135°27'0 0.0
2018-Feb-15 00:30N 34°40' E 135°27'0 0.0
2018-Feb-15 00:00N 34°40' E 135°27'0 0.0
2018-Feb-14 23:30N 34°40' E 135°27'0 0.0
2018-Feb-14 23:00N 34°40' E 135°27'0 0.0
2018-Feb-14 22:30N 34°40' E 135°27'0 0.0
2018-Feb-14 22:00N 34°40' E 135°27'0 0.0
2018-Feb-14 21:30N 34°40' E 135°27'0 0.0
2018-Feb-14 21:00N 34°40' E 135°27'0 0.0
2018-Feb-14 20:30N 34°40' E 135°27'0 0.0
2018-Feb-14 20:00N 34°40' E 135°27'0 0.0
2018-Feb-14 19:30N 34°40' E 135°27'0 0.0
2018-Feb-14 19:00N 34°40' E 135°27'0 0.0
2018-Feb-14 18:30N 34°40' E 135°27'0 0.0
2018-Feb-14 18:00N 34°40' E 135°27'0 0.0
2018-Feb-14 17:30N 34°40' E 135°27'0 0.0
2018-Feb-14 17:00N 34°40' E 135°27'2 3.1
2018-Feb-14 16:29N 34°39' E 135°26'510.2
2018-Feb-14 16:00N 34°38' E 135°20'610.9
2018-Feb-14 15:30N 34°36' E 135°13'611.3
2018-Feb-14 15:00N 34°35' E 135°07'712.2
2018-Feb-14 14:28N 34°37' E 134°59'612.2
2018-Feb-14 14:00N 34°35' E 134°53'611.3
2018-Feb-14 13:30N 34°32' E 134°47'611.0
2018-Feb-14 13:00N 34°30' E 134°41'611.1
2018-Feb-14 12:29N 34°28' E 134°34'99 2.9
2018-Feb-13 02:36N 34°11' E 132°36'211.8
2018-Feb-13 02:24N 34°11' E 132°34'4 9.4
2018-Feb-13 02:00N 34°14' E 132°31'611.7
2018-Feb-13 01:30N 34°20' E 132°28'1 2.1
2018-Feb-13 00:57N 34°21' E 132°28'0 0.1
2018-Feb-13 00:13N 34°21' E 132°28'0 0.0
2018-Feb-12 23:58N 34°21' E 132°28'0 0.0
2018-Feb-12 23:27N 34°21' E 132°28'0 0.0
2018-Feb-12 12:40N 34°21' E 132°28'0 0.0
2018-Feb-12 09:20N 34°21' E 132°28'0 0.0
2018-Feb-12 08:59N 34°21' E 132°28'0 0.0
2018-Feb-12 02:08N 34°21' E 132°28'0 0.0
2018-Feb-12 01:59N 34°21' E 132°28'0 0.0
2018-Feb-11 21:11N 34°21' E 132°28'0 0.0
2018-Feb-11 20:59N 34°21' E 132°28'0 0.0
2018-Feb-11 11:32N 34°21' E 132°28'0 0.1
2018-Feb-11 11:29N 34°21' E 132°28'0 0.0
2018-Feb-11 10:59N 34°21' E 132°28'0 0.1
2018-Feb-11 10:29N 34°21' E 132°28'0 0.0
2018-Feb-11 09:44N 34°21' E 132°28'0 0.2
2018-Feb-11 09:29N 34°21' E 132°28'0 0.1
2018-Feb-11 08:59N 34°21' E 132°28'0 0.0
2018-Feb-11 00:41N 34°21' E 132°28'0 0.2
2018-Feb-11 00:29N 34°21' E 132°28'0 0.0
2018-Feb-10 20:29N 34°21' E 132°28'0 0.0
2018-Feb-10 07:29N 34°21' E 132°28'0 0.0
2018-Feb-09 22:20N 34°21' E 132°28'  

Dump ship's entire track history